Time;durP1;ratioP1;P1;durP2;ratioP2;P2;SDS_P1;SDS_P2;PMS_P1;PMS_P2;Temp;Humidity;BMP_temperature;BMP_pressure;BME280_temperature;BME280_humidity;BME280_pressure;Samples;Min_cycle;Max_cycle;Signal;HPM_P1;HPM_P2
2021/01/20 05:10:29;;;;;;;74.05;25.05;;;;;;;-19.09;65.76;99772.47;1776978;79;28177;-62
2021/01/20 05:12:56;;;;;;;81.87;31.25;;;;;;;-19.11;65.85;99775.20;1749664;82;21040;-62
2021/01/20 05:15:32;;;;;;;77.15;32.10;;;;;;;-19.04;65.99;99777.43;1749640;82;21358;-61
2021/01/20 05:18:02;;;;;;;74.27;31.62;;;;;;;-18.92;65.94;99775.52;1749601;82;21064;-62
2021/01/20 05:20:37;;;;;;;72.45;31.05;;;;;;;-18.76;65.77;99779.19;1749600;82;20898;-62
2021/01/20 05:23:07;;;;;;;72.05;29.90;;;;;;;-18.59;65.81;99763.64;1749648;81;21044;-62
2021/01/20 05:25:42;;;;;;;85.97;32.25;;;;;;;-18.40;65.77;99766.25;1749719;80;21067;-62
2021/01/20 05:28:26;;;;;;;79.30;32.75;;;;;;;-18.21;65.66;99773.09;1749643;81;21394;-62
2021/01/20 05:30:56;;;;;;;77.58;31.27;;;;;;;-18.04;65.44;99774.35;1749561;81;21123;-62
2021/01/20 05:33:26;;;;;;;81.28;34.30;;;;;;;-17.85;65.06;99774.97;1749635;82;21068;-62
2021/01/20 05:36:10;;;;;;;70.67;31.10;;;;;;;-17.70;64.70;99776.47;1749691;82;21564;-62
2021/01/20 05:38:46;;;;;;;78.50;32.50;;;;;;;-17.64;64.49;99782.77;1749642;82;21064;-62
2021/01/20 05:41:24;;;;;;;82.67;33.10;;;;;;;-17.52;64.50;99778.64;1749578;82;21343;-61
2021/01/20 05:43:55;;;;;;;75.67;32.48;;;;;;;-17.35;64.36;99780.23;1749572;82;21116;-62
2021/01/20 05:46:31;;;;;;;77.95;32.13;;;;;;;-17.18;64.13;99787.28;1746976;82;21119;-61
2021/01/20 05:48:59;;;;;;;71.30;30.88;;;;;;;-17.03;63.83;99791.27;1749594;81;21084;-62
2021/01/20 05:51:28;;;;;;;78.10;32.15;;;;;;;-17.01;63.68;99781.92;1737128;82;21064;-62
2021/01/20 05:53:56;;;;;;;75.30;35.35;;;;;;;-16.91;63.72;99783.04;1691476;83;21390;-62
2021/01/20 05:56:28;;;;;;;79.82;34.20;;;;;;;-16.75;63.71;99779.63;1719681;82;21143;-62
2021/01/20 05:58:58;;;;;;;87.90;35.38;;;;;;;-16.63;63.57;99788.72;1719583;83;21056;-62
2021/01/20 06:01:26;;;;;;;121.77;48.63;;;;;;;-16.56;63.33;99790.45;1719168;83;21120;-63
2021/01/20 06:03:55;;;;;;;104.07;43.73;;;;;;;-16.44;63.20;99771.40;1719741;83;21123;-62
2021/01/20 06:06:22;;;;;;;94.30;35.88;;;;;;;-16.26;63.02;99777.15;1719148;82;21217;-63
2021/01/20 06:08:50;;;;;;;102.62;43.70;;;;;;;-16.23;62.32;99789.81;1716714;82;21202;-63
2021/01/20 06:11:18;;;;;;;91.53;40.05;;;;;;;-16.36;62.43;99780.62;1704412;83;21211;-62
2021/01/20 06:13:45;;;;;;;83.40;37.50;;;;;;;-16.29;62.46;99798.09;1706750;84;21064;-62
2021/01/20 06:16:25;;;;;;;80.15;36.38;;;;;;;-16.23;62.52;99797.28;1705572;84;21176;-63
2021/01/20 06:19:07;;;;;;;285.75;113.50;;;;;;;-16.06;62.59;99816.73;1703879;83;22363;-63
2021/01/20 06:21:36;;;;;;;193.90;80.32;;;;;;;-16.02;62.36;99814.94;1705622;84;21159;-62
2021/01/20 06:24:24;;;;;;;181.75;69.72;;;;;;;-15.91;62.55;99796.58;1706250;84;21140;-62
2021/01/20 06:27:02;;;;;;;164.93;68.52;;;;;;;-15.75;62.38;99798.46;1706294;84;21814;-62
2021/01/20 06:29:29;;;;;;;153.80;63.55;;;;;;;-15.74;62.07;99807.29;1706024;84;21156;-62
2021/01/20 06:31:58;;;;;;;88.10;36.88;;;;;;;-15.77;62.09;99792.51;1685853;84;21469;-62
2021/01/20 06:37:59;;;;;;;90.25;37.98;;;;;;;-15.47;62.25;99799.88;1659850;85;21532;-63
2021/01/20 06:40:36;;;;;;;86.90;38.75;;;;;;;-15.31;62.21;99804.23;1679388;84;21081;-62
2021/01/20 06:43:26;;;;;;;84.35;37.38;;;;;;;-15.13;62.32;99796.69;1706430;82;21115;-63
2021/01/20 06:46:17;;;;;;;99.30;44.58;;;;;;;-14.95;62.22;99797.86;1705990;84;21297;-61
2021/01/20 06:48:57;;;;;;;85.87;39.07;;;;;;;-14.81;62.35;99800.00;1706582;83;21082;-63
2021/01/20 06:51:26;;;;;;;82.50;34.25;;;;;;;-14.59;62.51;99800.97;1702892;82;21533;-62
2021/01/20 06:56:50;;;;;;;66.12;27.95;;;;;;;-14.21;63.07;99802.05;1889853;75;22644;-62
2021/01/20 06:59:32;;;;;;;51.13;26.37;;;;;;;-14.04;63.18;99810.17;1860695;77;20922;-64
2021/01/20 07:02:10;;;;;;;57.25;23.75;;;;;;;-13.93;63.30;99806.67;1860816;77;21336;-62
2021/01/20 07:04:53;;;;;;;56.23;25.65;;;;;;;-13.74;63.45;99808.23;1860744;77;21482;-61
2021/01/20 07:07:56;;;;;;;56.00;27.20;;;;;;;-13.54;63.37;99806.91;1860828;77;20930;-63
2021/01/20 07:10:29;;;;;;;64.42;31.90;;;;;;;-13.37;63.38;99806.63;1805739;78;21048;-61
2021/01/20 07:13:16;;;;;;;61.95;29.20;;;;;;;-13.26;63.31;99806.50;1826930;78;21171;-60
2021/01/20 07:15:45;;;;;;;47.58;22.10;;;;;;;-13.14;63.41;99799.16;1823869;78;21324;-65
2021/01/20 07:18:14;;;;;;;57.88;25.08;;;;;;;-13.05;63.20;99794.30;1824256;78;21120;-63
2021/01/20 07:20:43;;;;;;;41.13;21.50;;;;;;;-12.96;63.18;99795.19;1827098;78;21009;-63
2021/01/20 07:23:11;;;;;;;47.23;21.93;;;;;;;-12.92;63.10;99791.70;1826459;77;21158;-65
2021/01/20 07:25:39;;;;;;;58.25;31.05;;;;;;;-12.80;63.09;99794.05;1827434;78;21603;-63
2021/01/20 07:28:07;;;;;;;51.37;26.85;;;;;;;-12.69;63.11;99792.98;1830179;78;22191;-63
2021/01/20 07:30:35;;;;;;;52.60;25.90;;;;;;;-12.52;62.81;99791.78;1830540;78;21127;-63
2021/01/20 07:33:15;;;;;;;39.40;19.62;;;;;;;-12.47;62.56;99786.64;1830285;78;21106;-62
2021/01/20 07:35:44;;;;;;;43.42;23.00;;;;;;;-12.42;62.15;99787.75;1829030;78;22183;-63
2021/01/20 07:38:12;;;;;;;40.35;21.07;;;;;;;-12.46;62.10;99784.22;1827236;78;21110;-63
2021/01/20 07:40:43;;;;;;;36.38;18.32;;;;;;;-12.45;62.15;99784.69;1826474;77;22409;-63
2021/01/20 07:43:22;;;;;;;47.80;23.30;;;;;;;-12.40;62.37;99782.44;1828445;78;21159;-63
2021/01/20 07:45:54;;;;;;;40.52;20.60;;;;;;;-12.33;62.34;99790.73;1830676;78;21059;-63
2021/01/20 07:48:30;;;;;;;48.30;23.20;;;;;;;-12.28;62.34;99791.86;1830620;78;21134;-62
2021/01/20 07:50:58;;;;;;;47.70;23.95;;;;;;;-12.21;62.22;99801.44;1823743;78;21063;-63
2021/01/20 07:53:26;;;;;;;43.92;23.22;;;;;;;-12.15;62.34;99800.88;1796798;79;21200;-63
2021/01/20 07:55:55;;;;;;;44.60;20.72;;;;;;;-12.03;62.11;99799.91;1796500;79;21130;-63
2021/01/20 07:58:30;;;;;;;41.75;21.23;;;;;;;-11.93;62.15;99791.20;1797628;79;21142;-62
2021/01/20 08:00:57;;;;;;;38.65;20.80;;;;;;;-11.85;62.16;99801.25;1797902;79;21071;-62
2021/01/20 08:03:34;;;;;;;52.15;23.90;;;;;;;-11.80;61.99;99804.88;1797950;79;21135;-63
2021/01/20 08:06:07;;;;;;;41.98;21.42;;;;;;;-11.71;62.13;99800.28;1797770;79;22040;-63
2021/01/20 08:08:33;;;;;;;42.80;23.25;;;;;;;-11.61;61.97;99800.38;1797247;79;21166;-63
2021/01/20 08:11:02;;;;;;;40.75;21.42;;;;;;;-11.58;61.90;99803.01;1797273;79;21155;-66
2021/01/20 08:13:31;;;;;;;44.42;22.87;;;;;;;-11.43;61.86;99797.92;1804369;77;21160;-64
2021/01/20 08:15:59;;;;;;;37.78;20.52;;;;;;;-11.28;61.73;99793.66;1805474;78;21056;-62
2021/01/20 08:18:27;;;;;;;48.00;23.98;;;;;;;-11.12;61.59;99792.77;1763343;80;21595;-63
2021/01/20 08:20:54;;;;;;;39.58;19.67;;;;;;;-10.95;61.48;99792.80;1793839;80;21558;-61
2021/01/20 08:23:28;;;;;;;44.20;23.05;;;;;;;-10.76;61.07;99798.70;1793802;80;21144;-65
2021/01/20 08:26:08;;;;;;;44.25;20.82;;;;;;;-10.70;60.96;99799.87;1792648;80;21100;-62
2021/01/20 08:28:36;;;;;;;44.18;22.32;;;;;;;-10.56;60.91;99801.77;1793909;79;21092;-64
2021/01/20 08:31:20;;;;;;;41.60;21.30;;;;;;;-10.41;60.82;99802.91;1799250;78;21178;-64
2021/01/20 08:33:48;;;;;;;42.13;23.22;;;;;;;-10.27;60.49;99808.16;1794780;78;21080;-63
2021/01/20 08:36:23;;;;;;;35.75;19.67;;;;;;;-10.07;60.31;99801.50;1826218;78;21481;-69
2021/01/20 08:39:07;;;;;;;34.90;17.75;;;;;;;-9.96;59.95;99798.66;1826157;78;21249;-60
2021/01/20 08:41:35;;;;;;;53.42;26.97;;;;;;;-9.86;59.87;99797.03;1825506;78;21208;-61
2021/01/20 08:44:15;;;;;;;39.92;20.68;;;;;;;-9.73;59.86;99795.91;1795033;78;21208;-61
2021/01/20 08:46:42;;;;;;;32.95;17.98;;;;;;;-9.68;59.40;99786.91;1826122;78;21572;-62
2021/01/20 08:49:10;;;;;;;45.45;22.52;;;;;;;-9.60;59.29;99788.11;1769153;78;21076;-62
2021/01/20 08:51:38;;;;;;;39.75;20.17;;;;;;;-9.52;59.30;99784.64;1826278;77;21140;-69
2021/01/20 08:54:11;;;;;;;32.73;18.42;;;;;;;-9.37;59.40;99788.20;1826400;78;21488;-61
2021/01/20 08:56:38;;;;;;;40.40;21.52;;;;;;;-9.11;59.14;99791.03;1826320;77;21352;-62
2021/01/20 08:59:08;;;;;;;50.92;24.85;;;;;;;-8.90;58.66;99785.14;1825365;78;21183;-71
2021/01/20 09:01:38;;;;;;;39.67;22.10;;;;;;;-8.72;58.45;99787.14;1826250;78;21179;-61
2021/01/20 09:04:06;;;;;;;44.00;24.25;;;;;;;-8.50;58.23;99784.67;1826364;78;21064;-64
2021/01/20 09:06:36;;;;;;;37.93;20.88;;;;;;;-8.26;58.27;99782.20;1826416;78;21064;-61
2021/01/20 09:09:04;;;;;;;33.48;18.90;;;;;;;-8.00;57.60;99782.78;1801028;78;23583;-61
2021/01/20 09:11:32;;;;;;;37.35;21.40;;;;;;;-7.78;56.99;99781.02;1793678;80;21163;-61
2021/01/20 09:14:00;;;;;;;45.23;23.05;;;;;;;-7.82;56.45;99792.70;1793717;79;21142;-63
2021/01/20 09:16:30;;;;;;;49.27;27.20;;;;;;;-7.84;56.83;99801.02;1763796;80;21426;-67
2021/01/20 09:18:58;;;;;;;44.27;23.67;;;;;;;-7.67;56.97;99788.19;1793769;80;21057;-63
2021/01/20 09:21:28;;;;;;;41.50;23.02;;;;;;;-7.53;56.53;99784.02;1793794;80;22008;-63
2021/01/20 09:23:56;;;;;;;42.75;22.98;;;;;;;-7.34;56.88;99780.06;1793785;80;21158;-63
2021/01/20 09:26:24;;;;;;;32.78;19.30;;;;;;;-7.06;56.52;99783.14;1793798;79;21199;-63
2021/01/20 09:28:52;;;;;;;35.73;20.95;;;;;;;-6.83;55.49;99774.64;1793880;79;21163;-65
2021/01/20 09:31:20;;;;;;;33.42;19.98;;;;;;;-6.79;55.04;99773.05;1793915;80;21072;-64
2021/01/20 09:33:49;;;;;;;39.85;22.42;;;;;;;-6.85;55.15;99777.52;1793916;80;21365;-64
2021/01/20 09:36:17;;;;;;;38.53;21.75;;;;;;;-6.86;55.29;99777.47;1793798;80;21521;-64
2021/01/20 09:38:45;;;;;;;38.15;22.93;;;;;;;-6.74;55.26;99769.00;1798363;78;22113;-65
2021/01/20 09:41:13;;;;;;;40.50;23.45;;;;;;;-6.59;55.31;99768.66;1823082;78;21244;-63
2021/01/20 09:43:41;;;;;;;36.90;22.60;;;;;;;-6.43;54.63;99779.30;1786644;80;21159;-65
2021/01/20 09:46:09;;;;;;;39.25;24.23;;;;;;;-6.37;55.05;99769.74;1789986;80;22301;-64
2021/01/20 09:48:38;;;;;;;41.75;24.25;;;;;;;-6.17;54.96;99770.34;1789934;79;21096;-64
2021/01/20 09:51:06;;;;;;;45.23;26.40;;;;;;;-6.04;54.65;99769.50;1790036;79;21550;-65
2021/01/20 09:53:34;;;;;;;45.75;24.72;;;;;;;-5.95;54.84;99772.28;1793068;80;21253;-65
2021/01/20 09:56:02;;;;;;;47.00;27.37;;;;;;;-5.75;54.84;99763.09;1792949;80;21184;-64
2021/01/20 09:58:30;;;;;;;81.55;28.62;;;;;;;-5.57;54.28;99766.13;1793128;80;21269;-64
2021/01/20 10:00:58;;;;;;;46.90;23.77;;;;;;;-5.53;53.56;99765.81;1793027;80;21522;-64
2021/01/20 10:03:26;;;;;;;37.10;21.82;;;;;;;-5.68;53.52;99768.39;1793054;80;21009;-64
2021/01/20 10:05:55;;;;;;;37.88;22.37;;;;;;;-5.71;53.91;99763.23;1792995;80;21124;-63
2021/01/20 10:08:23;;;;;;;39.18;22.07;;;;;;;-5.70;53.85;99766.63;1793038;79;21206;-63
2021/01/20 10:10:51;;;;;;;43.10;27.77;;;;;;;-5.64;54.39;99772.73;1793042;80;21645;-64
2021/01/20 10:13:21;;;;;;;44.93;26.48;;;;;;;-5.46;54.39;99777.44;1792941;80;21105;-64
2021/01/20 10:15:49;;;;;;;40.52;21.93;;;;;;;-5.25;54.13;99773.35;1793104;80;21073;-65
2021/01/20 10:18:17;;;;;;;43.70;24.40;;;;;;;-5.12;53.83;99769.04;1792991;80;21096;-65
2021/01/20 10:20:52;;;;;;;41.30;23.73;;;;;;;-4.98;53.97;99761.77;1793050;80;21110;-65
2021/01/20 10:23:24;;;;;;;39.40;23.80;;;;;;;-4.75;53.61;99762.34;1761098;80;21331;-63
2021/01/20 10:25:53;;;;;;;38.15;21.15;;;;;;;-4.59;53.74;99760.61;1789332;80;21505;-64
2021/01/20 10:28:20;;;;;;;36.15;21.77;;;;;;;-4.46;53.27;99748.67;1789964;79;21070;-63
2021/01/20 10:30:54;;;;;;;40.78;23.20;;;;;;;-4.41;53.00;99750.91;1785121;80;21165;-65
2021/01/20 10:33:21;;;;;;;37.08;23.50;;;;;;;-4.39;52.64;99744.56;1767418;81;21500;-64
2021/01/20 10:35:56;;;;;;;34.85;22.40;;;;;;;-4.44;52.71;99736.87;1768876;81;21203;-66
2021/01/20 10:38:26;;;;;;;36.30;22.10;;;;;;;-4.37;52.79;99741.65;1770064;81;21126;-64
2021/01/20 10:40:55;;;;;;;37.08;21.52;;;;;;;-4.29;52.48;99741.02;1770158;81;21563;-65
2021/01/20 10:43:23;;;;;;;36.17;21.02;;;;;;;-4.37;52.32;99729.81;1770018;81;21166;-63
2021/01/20 10:45:51;;;;;;;37.28;21.60;;;;;;;-4.53;52.34;99729.89;1770123;81;21503;-62
2021/01/20 10:48:19;;;;;;;30.62;18.15;;;;;;;-4.66;52.94;99726.64;1770159;81;21323;-63
2021/01/20 10:50:47;;;;;;;34.98;20.50;;;;;;;-4.69;53.19;99722.75;1770000;79;21071;-64
2021/01/20 10:53:15;;;;;;;36.63;22.75;;;;;;;-4.83;53.33;99726.66;1770100;81;21138;-63
2021/01/20 10:55:43;;;;;;;50.00;29.85;;;;;;;-5.00;53.76;99722.86;1759462;80;21154;-64
2021/01/20 10:58:11;;;;;;;43.50;26.90;;;;;;;-5.15;54.27;99724.58;1793583;79;21204;-64
2021/01/20 11:00:39;;;;;;;41.30;23.50;;;;;;;-5.18;54.81;99719.42;1761058;81;21454;-65
2021/01/20 11:03:07;;;;;;;40.15;23.47;;;;;;;-5.08;54.58;99720.53;1780863;78;21103;-64
2021/01/20 11:05:37;;;;;;;35.65;20.82;;;;;;;-5.02;55.15;99719.02;1764407;81;21217;-62
2021/01/20 11:08:07;;;;;;;37.00;21.55;;;;;;;-4.93;55.00;99723.43;1764384;81;21139;-63
2021/01/20 11:10:37;;;;;;;35.63;21.02;;;;;;;-4.95;54.83;99726.34;1732385;82;21563;-62
2021/01/20 11:13:08;;;;;;;37.42;22.05;;;;;;;-4.94;54.99;99727.65;1764323;81;21391;-64
2021/01/20 11:15:45;;;;;;;37.65;22.05;;;;;;;-4.90;54.83;99729.44;1764473;81;21155;-65
2021/01/20 11:18:11;;;;;;;33.40;21.00;;;;;;;-4.94;54.72;99733.98;1764215;81;21084;-63
2021/01/20 11:20:40;;;;;;;31.25;19.30;;;;;;;-4.99;55.06;99724.13;1764312;81;21084;-69
2021/01/20 11:23:10;;;;;;;34.58;22.52;;;;;;;-4.99;55.09;99726.67;1764406;81;21115;-65
2021/01/20 11:25:44;;;;;;;35.30;20.40;;;;;;;-5.04;55.33;99724.45;1764389;81;21405;-65
2021/01/20 11:28:13;;;;;;;35.23;22.70;;;;;;;-5.13;55.59;99722.08;1764208;81;21171;-66
2021/01/20 11:30:41;;;;;;;30.25;21.65;;;;;;;-5.17;56.11;99720.28;1763742;81;21167;-66
2021/01/20 11:33:10;;;;;;;31.42;18.98;;;;;;;-5.16;56.19;99720.73;1763956;81;21528;-65
2021/01/20 11:35:42;;;;;;;34.95;20.52;;;;;;;-5.15;56.41;99715.70;1763506;81;21207;-66
2021/01/20 11:38:10;;;;;;;40.17;22.42;;;;;;;-5.16;56.54;99716.93;1763851;81;21281;-64
2021/01/20 11:40:37;;;;;;;37.60;22.42;;;;;;;-5.12;56.99;99720.86;1764267;81;21085;-62
2021/01/20 11:43:06;;;;;;;35.60;20.80;;;;;;;-5.04;56.93;99715.98;1783388;80;21128;-65
2021/01/20 11:45:36;;;;;;;82.40;47.00;;;;;;;-4.99;56.85;99713.13;1762872;81;21122;-62
2021/01/20 11:48:05;;;;;;;43.52;26.33;;;;;;;-4.98;56.85;99709.77;1795905;80;21172;-65
2021/01/20 11:50:34;;;;;;;40.40;22.35;;;;;;;-5.06;56.98;99703.27;1795902;78;21506;-64
2021/01/20 11:53:02;;;;;;;40.12;22.35;;;;;;;-5.10;57.46;99704.00;1795853;80;21191;-60
2021/01/20 11:55:29;;;;;;;41.23;24.20;;;;;;;-5.08;57.53;99703.64;1795873;80;21089;-60
2021/01/20 11:57:58;;;;;;;42.00;23.47;;;;;;;-5.05;57.65;99700.31;1797857;79;21087;-67
2021/01/20 12:00:25;;;;;;;35.73;21.85;;;;;;;-4.99;57.73;99701.30;1765844;81;21154;-63
2021/01/20 12:02:53;;;;;;;40.75;22.00;;;;;;;-4.95;57.87;99700.56;1797932;79;21360;-63
2021/01/20 12:05:22;;;;;;;38.40;22.55;;;;;;;-4.94;57.91;99696.34;1798871;79;21191;-62
2021/01/20 12:07:50;;;;;;;36.80;22.52;;;;;;;-4.95;57.85;99687.87;1798965;79;21076;-61
2021/01/20 12:10:18;;;;;;;32.60;20.88;;;;;;;-4.93;58.07;99689.19;1798995;79;21085;-62
2021/01/20 12:12:46;;;;;;;34.20;21.97;;;;;;;-4.95;58.03;99684.48;1798952;79;21072;-62
2021/01/20 12:15:16;;;;;;;43.45;23.57;;;;;;;-5.02;58.33;99694.91;1798986;79;21453;-63
2021/01/20 12:17:44;;;;;;;35.85;21.02;;;;;;;-4.94;58.66;99694.67;1765735;81;21134;-62
2021/01/20 12:20:15;;;;;;;40.08;22.62;;;;;;;-4.76;58.75;99690.44;1787731;79;21172;-65
2021/01/20 12:22:42;;;;;;;32.28;18.87;;;;;;;-4.69;58.41;99693.57;1782433;79;21186;-62
2021/01/20 12:25:11;;;;;;;32.38;19.50;;;;;;;-4.63;58.46;99687.78;1795769;79;21190;-63
2021/01/20 12:27:39;;;;;;;43.20;24.63;;;;;;;-4.60;58.42;99691.25;1798851;78;21507;-62
2021/01/20 12:30:11;;;;;;;41.58;23.12;;;;;;;-4.59;58.07;99690.40;1783279;79;21063;-62
2021/01/20 12:32:39;;;;;;;41.88;25.95;;;;;;;-4.60;57.98;99687.45;1799262;79;21055;-63
2021/01/20 12:35:09;;;;;;;39.75;23.25;;;;;;;-4.68;58.18;99684.28;1798996;79;21570;-62
2021/01/20 12:37:39;;;;;;;33.98;20.90;;;;;;;-4.73;58.60;99685.44;1796763;79;21060;-61
2021/01/20 12:40:08;;;;;;;41.55;24.45;;;;;;;-4.76;58.68;99689.16;1783356;79;21415;-61
2021/01/20 12:42:35;;;;;;;48.13;28.07;;;;;;;-4.81;58.83;99684.42;1798997;79;21496;-61
2021/01/20 12:45:07;;;;;;;51.23;28.07;;;;;;;-4.78;59.21;99683.60;1798788;79;21162;-61
2021/01/20 12:47:35;;;;;;;47.78;26.30;;;;;;;-4.80;59.26;99682.73;1798984;79;21122;-62
2021/01/20 12:50:07;;;;;;;38.80;23.30;;;;;;;-4.79;59.62;99682.74;1798001;79;21216;-62
2021/01/20 12:52:38;;;;;;;43.33;27.02;;;;;;;-4.79;59.66;99684.42;1797146;78;21385;-61
2021/01/20 12:55:07;;;;;;;59.27;33.18;;;;;;;-4.82;60.02;99677.62;1799015;79;21099;-62
2021/01/20 12:57:36;;;;;;;49.80;27.52;;;;;;;-4.72;60.08;99687.56;1798772;79;21120;-63
2021/01/20 13:00:06;;;;;;;38.58;24.37;;;;;;;-4.62;60.09;99686.55;1785769;78;21164;-64
2021/01/20 13:02:34;;;;;;;36.88;22.95;;;;;;;-4.53;59.90;99679.53;1761171;81;21171;-63
2021/01/20 13:05:04;;;;;;;41.23;24.27;;;;;;;-4.45;59.83;99686.06;1762182;81;21210;-63
2021/01/20 13:07:32;;;;;;;46.08;26.90;;;;;;;-4.32;59.77;99693.11;1762313;81;21616;-62
2021/01/20 13:09:59;;;;;;;53.00;29.00;;;;;;;-4.26;59.44;99694.52;1762313;81;21088;-62
2021/01/20 13:12:28;;;;;;;44.08;26.20;;;;;;;-4.26;59.34;99701.72;1762317;81;21077;-61
2021/01/20 13:14:56;;;;;;;48.05;27.27;;;;;;;-4.23;59.23;99705.60;1762312;81;21120;-62
2021/01/20 13:17:24;;;;;;;54.20;32.30;;;;;;;-4.21;58.89;99703.95;1762238;81;21213;-61
2021/01/20 13:19:52;;;;;;;42.08;22.80;;;;;;;-4.26;58.57;99702.99;1762279;81;21569;-62
2021/01/20 13:22:22;;;;;;;46.18;26.07;;;;;;;-4.36;58.58;99706.55;1762046;81;21199;-63
2021/01/20 13:24:50;;;;;;;43.98;25.02;;;;;;;-4.52;58.83;99706.22;1762394;81;21511;-63
2021/01/20 13:27:18;;;;;;;51.58;28.62;;;;;;;-4.62;58.94;99699.66;1762326;81;21069;-63
2021/01/20 13:29:46;;;;;;;38.48;22.27;;;;;;;-4.74;59.38;99705.28;1762301;81;21403;-64
2021/01/20 13:32:14;;;;;;;38.00;23.38;;;;;;;-4.90;59.41;99705.34;1762166;81;21188;-64
2021/01/20 13:34:44;;;;;;;44.93;25.75;;;;;;;-5.12;59.83;99706.05;1762134;81;21183;-64
2021/01/20 13:37:19;;;;;;;42.90;25.23;;;;;;;-5.27;60.32;99710.34;1784432;80;21134;-65
2021/01/20 13:39:47;;;;;;;37.95;23.42;;;;;;;-5.35;60.83;99710.54;1793465;80;21064;-65
2021/01/20 13:42:15;;;;;;;40.70;24.52;;;;;;;-5.49;61.10;99703.86;1793649;80;21217;-65
2021/01/20 13:44:44;;;;;;;44.53;23.60;;;;;;;-5.51;61.50;99702.09;1793526;80;21124;-65
2021/01/20 13:47:12;;;;;;;42.78;25.08;;;;;;;-5.49;61.74;99700.05;1793593;79;21167;-65
2021/01/20 13:49:41;;;;;;;43.55;25.57;;;;;;;-5.46;61.77;99694.21;1793147;80;21080;-61
2021/01/20 13:52:09;;;;;;;46.13;26.73;;;;;;;-5.45;62.00;99698.46;1766843;80;21068;-67
2021/01/20 13:57:45;;;;;;;38.95;23.90;;;;;;;-5.51;62.15;99708.02;1778204;80;21137;-62
2021/01/20 14:00:15;;;;;;;38.15;23.12;;;;;;;-5.47;62.45;99718.70;1753366;80;21141;-65
2021/01/20 14:02:43;;;;;;;37.23;23.52;;;;;;;-5.49;62.41;99706.39;1753304;81;21134;-66
2021/01/20 14:05:13;;;;;;;39.63;21.80;;;;;;;-5.58;62.39;99701.92;1753350;80;21160;-64
2021/01/20 14:07:41;;;;;;;36.48;22.02;;;;;;;-5.70;62.73;99700.34;1753238;81;21184;-66
2021/01/20 14:10:12;;;;;;;42.58;25.45;;;;;;;-5.80;63.00;99705.14;1746628;81;21089;-64
2021/01/20 14:12:40;;;;;;;41.70;23.87;;;;;;;-5.92;63.30;99718.34;1753176;80;21225;-64
2021/01/20 14:15:09;;;;;;;39.88;24.57;;;;;;;-6.00;63.63;99716.88;1752735;80;21491;-65
2021/01/20 14:17:37;;;;;;;39.73;24.37;;;;;;;-6.01;63.90;99729.08;1752515;81;21609;-63
2021/01/20 14:20:07;;;;;;;40.33;23.47;;;;;;;-6.01;64.09;99721.48;1753185;81;21563;-60
2021/01/20 14:22:35;;;;;;;42.20;24.05;;;;;;;-6.05;64.35;99725.14;1752981;81;21556;-66
2021/01/20 14:25:04;;;;;;;43.73;25.10;;;;;;;-6.08;64.57;99728.84;1752977;81;21177;-66
2021/01/20 14:27:34;;;;;;;48.40;26.75;;;;;;;-6.12;64.85;99723.24;1753355;81;21577;-61
2021/01/20 14:30:09;;;;;;;46.15;27.50;;;;;;;-6.05;65.11;99729.80;1753325;80;21157;-62
2021/01/20 14:32:36;;;;;;;49.30;28.07;;;;;;;-5.95;65.01;99730.50;1705723;82;21265;-64
2021/01/20 14:35:08;;;;;;;44.85;27.15;;;;;;;-5.83;64.90;99726.17;1675915;84;21581;-67
2021/01/20 14:37:36;;;;;;;42.93;24.50;;;;;;;-5.77;64.60;99728.84;1705639;84;21172;-60
2021/01/20 14:40:06;;;;;;;41.48;23.73;;;;;;;-5.79;64.45;99725.41;1699962;82;21189;-62
2021/01/20 14:42:34;;;;;;;43.95;25.68;;;;;;;-5.85;64.50;99727.80;1691344;84;21618;-62
2021/01/20 14:45:04;;;;;;;47.08;25.60;;;;;;;-5.87;64.62;99722.23;1690195;83;21391;-65
2021/01/20 14:47:32;;;;;;;39.65;23.57;;;;;;;-5.94;64.71;99719.55;1690158;84;21230;-66
2021/01/20 14:50:00;;;;;;;40.33;22.95;;;;;;;-6.00;65.00;99723.61;1674200;84;21090;-65
2021/01/20 14:52:27;;;;;;;46.08;26.90;;;;;;;-6.06;65.20;99725.95;1674179;85;21109;-65
2021/01/20 14:54:55;;;;;;;47.08;27.95;;;;;;;-6.14;65.42;99728.66;1674194;85;21149;-65
2021/01/20 14:57:23;;;;;;;50.50;27.35;;;;;;;-6.18;65.66;99735.30;1711763;81;21828;-65
2021/01/20 14:59:50;;;;;;;54.13;27.98;;;;;;;-6.20;65.76;99736.10;1756031;81;21077;-65
2021/01/20 15:02:19;;;;;;;53.08;26.37;;;;;;;-6.29;65.95;99732.47;1756058;81;21074;-65
2021/01/20 15:04:47;;;;;;;38.40;21.27;;;;;;;-6.31;66.29;99730.30;1756055;81;21070;-64
2021/01/20 15:07:15;;;;;;;43.20;25.27;;;;;;;-6.30;66.40;99734.95;1756068;81;21122;-63
2021/01/20 15:09:45;;;;;;;46.50;27.02;;;;;;;-6.35;66.54;99735.22;1756108;81;21368;-61
2021/01/20 15:12:15;;;;;;;43.87;23.67;;;;;;;-6.37;66.71;99741.50;1755959;81;21141;-62
2021/01/20 15:14:43;;;;;;;40.90;23.52;;;;;;;-6.32;66.71;99737.84;1756064;81;21177;-61
2021/01/20 15:17:11;;;;;;;44.48;23.73;;;;;;;-6.33;66.65;99739.52;1756101;81;21070;-60
2021/01/20 15:19:39;;;;;;;38.85;20.37;;;;;;;-6.32;66.67;99745.03;1785685;80;21079;-60
2021/01/20 15:22:06;;;;;;;39.60;23.00;;;;;;;-6.37;66.59;99745.70;1785704;80;21422;-61
2021/01/20 15:24:34;;;;;;;42.17;23.05;;;;;;;-6.42;66.62;99740.52;1785614;80;21118;-59
2021/01/20 15:27:01;;;;;;;37.20;22.90;;;;;;;-6.43;66.58;99745.12;1783486;80;21134;-61
2021/01/20 15:29:29;;;;;;;37.42;21.30;;;;;;;-6.53;66.54;99740.59;1756070;80;22039;-61
2021/01/20 15:31:57;;;;;;;40.05;21.48;;;;;;;-6.65;66.80;99745.28;1754622;81;21510;-61
2021/01/20 15:34:24;;;;;;;38.40;22.07;;;;;;;-6.70;67.02;99748.06;1754652;81;21354;-64
2021/01/20 15:36:52;;;;;;;38.73;21.65;;;;;;;-6.74;67.17;99743.30;1754512;81;21587;-62
2021/01/20 15:39:20;;;;;;;37.85;20.88;;;;;;;-6.81;67.19;99749.00;1754592;81;21177;-61
2021/01/20 15:41:48;;;;;;;39.10;19.82;;;;;;;-6.85;67.46;99747.58;1754601;81;21055;-64
2021/01/20 15:44:15;;;;;;;40.92;21.97;;;;;;;-6.87;67.63;99747.94;1754596;81;21644;-63
2021/01/20 15:46:44;;;;;;;37.48;21.37;;;;;;;-6.89;67.77;99745.76;1754600;81;21328;-62
2021/01/20 15:49:12;;;;;;;43.70;23.77;;;;;;;-6.88;67.97;99748.34;1729176;81;21235;-59
2021/01/20 15:51:40;;;;;;;39.53;22.32;;;;;;;-6.84;68.11;99737.92;1754507;80;21091;-63
2021/01/20 15:54:07;;;;;;;38.10;22.10;;;;;;;-6.81;68.09;99740.15;1780226;80;21092;-62
2021/01/20 15:56:35;;;;;;;41.28;23.10;;;;;;;-6.80;68.13;99733.02;1754594;81;21130;-60
2021/01/20 15:59:03;;;;;;;38.58;20.92;;;;;;;-6.83;68.14;99731.66;1761057;81;21270;-61
2021/01/20 16:01:31;;;;;;;45.67;24.87;;;;;;;-6.86;68.27;99735.75;1774908;80;21535;-65
2021/01/20 16:03:58;;;;;;;41.65;22.35;;;;;;;-6.89;68.45;99740.30;1795994;80;21479;-63
2021/01/20 16:06:26;;;;;;;38.45;20.77;;;;;;;-6.86;68.50;99739.54;1795121;80;21145;-63
2021/01/20 16:08:54;;;;;;;39.05;21.73;;;;;;;-6.84;68.59;99737.52;1796088;80;21598;-63
2021/01/20 16:11:22;;;;;;;34.78;21.02;;;;;;;-6.83;68.52;99737.97;1796023;80;21409;-63
2021/01/20 16:13:49;;;;;;;39.05;22.58;;;;;;;-6.82;68.56;99734.64;1795912;80;21071;-63
2021/01/20 16:16:17;;;;;;;40.98;23.83;;;;;;;-6.80;68.55;99745.66;1795975;80;21082;-63
2021/01/20 16:18:45;;;;;;;40.48;22.22;;;;;;;-6.79;68.57;99738.50;1795939;80;21188;-63
2021/01/20 16:21:13;;;;;;;39.15;20.72;;;;;;;-6.77;68.59;99739.81;1795992;80;21130;-63
2021/01/20 16:23:41;;;;;;;38.17;22.00;;;;;;;-6.78;68.49;99741.48;1795986;80;21357;-63
2021/01/20 16:26:08;;;;;;;44.75;21.55;;;;;;;-6.82;68.52;99743.48;1795935;80;21074;-64
2021/01/20 16:28:36;;;;;;;42.05;22.42;;;;;;;-6.85;68.51;99753.91;1795949;80;21119;-63
2021/01/20 16:31:04;;;;;;;40.80;22.55;;;;;;;-6.89;68.67;99751.67;1795955;80;21114;-62
2021/01/20 16:33:31;;;;;;;39.88;21.70;;;;;;;-6.88;68.53;99753.40;1795890;80;21241;-63
2021/01/20 16:35:59;;;;;;;41.65;22.13;;;;;;;-6.87;68.64;99759.31;1795950;80;21270;-63
2021/01/20 16:38:27;;;;;;;41.63;23.80;;;;;;;-6.80;68.74;99765.03;1795966;80;21070;-63
2021/01/20 16:40:54;;;;;;;34.98;19.95;;;;;;;-6.73;68.63;99767.79;1795961;80;21130;-63
2021/01/20 16:43:22;;;;;;;40.40;22.42;;;;;;;-6.61;68.62;99772.40;1795939;80;21189;-63
2021/01/20 16:45:50;;;;;;;46.18;24.10;;;;;;;-6.47;68.30;99769.02;1795963;80;21468;-63